This is the latest recevied weather packets stored in our database for station/object KA5ZCI. If no packets are shown the sender has not sent any weather packets the latest 10 day(s).
| Time | Temp. | Humidity | Pressure | Rain* | Wind** | Luminosity | Snow |
|---|---|---|---|---|---|---|---|
| 1777547104 | 22.78° C | 91% | 1009.5 hPa | 0 mm | - | 0 W/m² | - |
| 1777546804 | 22.78° C | 91% | 1009.5 hPa | 0 mm | - | 0 W/m² | - |
| 1777545903 | 22.22° C | 92% | 1009.3 hPa | 0 mm | - | 0 W/m² | - |
| 1777543803 | 21.67° C | 92% | 1008.9 hPa | 0 mm | - | 0 W/m² | - |
| 1777542304 | 21.67° C | 92% | 1009.1 hPa | 0 mm | - | 0 W/m² | - |
| 1777541104 | 21.11° C | 92% | 1008.9 hPa | 0 mm | - | 0 W/m² | - |
| 1777540504 | 21.11° C | 92% | 1009.2 hPa | 0.25 mm | - | 0 W/m² | - |
| 1777539904 | 21.11° C | 92% | 1009.4 hPa | 0.25 mm | - | 0 W/m² | - |
| 1777538104 | 21.11° C | 92% | 1009.4 hPa | 0.25 mm | - | 0 W/m² | - |
| 1777537804 | 21.11° C | 92% | 1009.9 hPa | 0.25 mm | - | 0 W/m² | - |
| 1777536904 | 21.11° C | 92% | 1011.7 hPa | 0 mm | - | 0 W/m² | - |
| 1777528803 | 22.22° C | 84% | 1012.6 hPa | 0 mm | - | 0 W/m² | - |
| 1777528205 | 22.22° C | 84% | 1012.4 hPa | 0 mm | - | 0 W/m² | - |
| 1777527904 | 22.22° C | 84% | 1012.5 hPa | 0 mm | - | 0 W/m² | - |
| 1777527604 | 22.22° C | 84% | 1012.4 hPa | 0 mm | - | 0 W/m² | - |
| 1777524604 | 22.78° C | 83% | 1013.5 hPa | 0 mm | - | 0 W/m² | - |
| 1777521904 | 22.22° C | 84% | 1013.9 hPa | 0.25 mm | - | 0 W/m² | - |
| 1777515904 | 23.89° C | 79% | 1012.5 hPa | 0 mm | - | 0 W/m² | - |
| 1777512304 | 25.56° C | 71% | 1012 hPa | 0 mm | - | 0 W/m² | - |
| 1777500004 | 30.56° C | 53% | 1010.1 hPa | 0 mm | - | 0 W/m² | - |
| 1777496704 | 31.67° C | 49% | 1010.3 hPa | 0 mm | - | 0 W/m² | - |
| 1777495804 | 31.67° C | 47% | 1010.4 hPa | 0 mm | - | 0 W/m² | - |
| 1777495204 | 32.22° C | 44% | 1010.4 hPa | 0 mm | - | 0 W/m² | - |
| 1777494303 | 32.22° C | 43% | 1010.8 hPa | 0 mm | - | 0 W/m² | - |
| 1777491603 | 32.22° C | 46% | 1012 hPa | 0 mm | - | 0 W/m² | - |
* Rain latest hour (hover to see other rain measurements)
** Current wind speed in m/s (hover to see current wind gust speed)